Time;durP1;ratioP1;P1;durP2;ratioP2;P2;SDS_P1;SDS_P2;PMS_P1;PMS_P2;Temp;Humidity;BMP_temperature;BMP_pressure;BME280_temperature;BME280_humidity;BME280_pressure;Samples;Min_cycle;Max_cycle;Signal;HPM_P1;HPM_P2
2023/05/09 00:00:42;;;;;;;;;;;;;;;18.79;66.70;101446.44;1240896;23;612;-68
2023/05/09 00:01:33;;;;;;;;;;;;;;;18.77;66.20;101451.13;1242204;23;642;-68
2023/05/09 00:02:23;;;;;;;;;;;;;;;18.76;66.72;101446.69;1241917;23;620;-68
2023/05/09 00:03:14;;;;;;;;;;;;;;;18.75;66.18;101444.13;1241281;23;718;-67
2023/05/09 00:04:04;;;;;;;;;;;;;;;18.72;66.70;101440.72;1241929;23;682;-68
2023/05/09 00:04:55;;;;;;;;;;;;;;;18.72;66.13;101442.56;1241992;23;659;-68
2023/05/09 00:05:46;;;;;;;;;;;;;;;18.68;66.83;101439.28;1241665;23;735;-67
2023/05/09 00:06:36;;;;;;;;;;;;;;;18.69;66.19;101440.13;1242743;23;635;-68
2023/05/09 00:07:26;;;;;;;;;;;;;;;18.67;66.02;101436.72;1242155;23;627;-68
2023/05/09 00:08:17;;;;;;;;;;;;;;;18.67;66.14;101436.72;1242622;23;607;-68
2023/05/09 00:09:07;;;;;;;;;;;;;;;18.67;66.96;101432.16;1242183;23;698;-68
2023/05/09 00:09:58;;;;;;;;;;;;;;;18.69;66.95;101434.72;1242709;23;740;-68
2023/05/09 00:10:48;;;;;;;;;;;;;;;18.68;66.85;101427.63;1241774;23;662;-68
2023/05/09 00:11:39;;;;;;;;;;;;;;;18.67;66.36;101432.16;1241629;23;655;-68
2023/05/09 00:12:29;;;;;;;;;;;;;;;18.68;66.37;101430.31;1242020;23;607;-68
2023/05/09 00:13:20;;;;;;;;;;;;;;;18.66;66.53;101421.50;1242585;23;603;-68
2023/05/09 00:14:13;;;;;;;;;;;;;;;18.68;67.19;101428.47;1241943;23;721;-68
2023/05/09 00:15:07;;;;;;;;;;;;;;;18.71;66.74;101424.66;1241992;23;1919;-68
2023/05/09 00:15:57;;;;;;;;;;;;;;;18.73;67.04;101428.94;1241820;23;608;-68
2023/05/09 00:16:47;;;;;;;;;;;;;;;18.71;67.22;101430.91;1242081;23;658;-68
2023/05/09 00:17:38;;;;;;;;;;;;;;;18.70;66.35;101421.09;1242877;23;678;-68
2023/05/09 00:18:29;;;;;;;;;;;;;;;18.68;66.04;101427.63;1241161;23;603;-68
2023/05/09 00:19:20;;;;;;;;;;;;;;;18.69;66.71;101423.94;1241907;23;611;-68
2023/05/09 00:20:11;;;;;;;;;;;;;;;18.70;66.49;101426.50;1242157;23;623;-68
2023/05/09 00:21:03;;;;;;;;;;;;;;;18.69;66.81;101423.94;1242891;23;806;-68
2023/05/09 00:21:53;;;;;;;;;;;;;;;18.70;66.61;101418.41;1242087;23;660;-68
2023/05/09 00:22:43;;;;;;;;;;;;;;;18.71;66.29;101419.25;1242297;23;675;-68
2023/05/09 00:23:34;;;;;;;;;;;;;;;18.68;66.71;101422.22;1240707;23;741;-68
2023/05/09 00:24:24;;;;;;;;;;;;;;;18.67;66.68;101418.66;1242082;23;650;-68
2023/05/09 00:25:15;;;;;;;;;;;;;;;18.68;66.36;101414.13;1236411;24;666;-68
2023/05/09 00:26:05;;;;;;;;;;;;;;;18.68;66.72;101414.13;1236484;24;635;-68
2023/05/09 00:26:56;;;;;;;;;;;;;;;18.69;66.24;101414.00;1242708;23;687;-68
2023/05/09 00:27:46;;;;;;;;;;;;;;;18.68;66.19;101414.97;1241770;23;608;-68
2023/05/09 00:28:36;;;;;;;;;;;;;;;18.67;66.17;101407.88;1242167;23;643;-68
2023/05/09 00:29:27;;;;;;;;;;;;;;;18.67;66.23;101420.50;1241700;23;608;-67
2023/05/09 00:30:17;;;;;;;;;;;;;;;18.65;66.48;101414.41;1241822;23;670;-68
2023/05/09 00:31:08;;;;;;;;;;;;;;;18.65;66.81;101409.84;1243420;23;706;-67
2023/05/09 00:31:58;;;;;;;;;;;;;;;18.66;67.02;101414.25;1241871;23;647;-67
2023/05/09 00:32:49;;;;;;;;;;;;;;;18.67;66.75;101404.31;1236578;24;686;-68
2023/05/09 00:33:39;;;;;;;;;;;;;;;18.65;66.16;101412.53;1236755;24;642;-68
2023/05/09 00:34:29;;;;;;;;;;;;;;;18.64;66.74;101409.97;1238115;23;661;-68
2023/05/09 00:35:20;;;;;;;;;;;;;;;18.64;65.97;101409.97;1237955;23;654;-67
2023/05/09 00:36:10;;;;;;;;;;;;;;;18.65;66.74;101411.69;1242394;23;651;-68
2023/05/09 00:37:01;;;;;;;;;;;;;;;18.65;66.66;101409.00;1242578;23;790;-68
2023/05/09 00:37:51;;;;;;;;;;;;;;;18.64;66.17;101408.13;1242284;23;1046;-68
2023/05/09 00:38:42;;;;;;;;;;;;;;;18.66;66.66;101400.75;1243581;23;732;-68
2023/05/09 00:39:32;;;;;;;;;;;;;;;18.66;66.52;101395.34;1241955;23;624;-67
2023/05/09 00:40:23;;;;;;;;;;;;;;;18.67;66.62;101398.91;1242762;23;679;-67
2023/05/09 00:41:13;;;;;;;;;;;;;;;18.65;66.22;101398.19;1241586;23;658;-68
2023/05/09 00:42:03;;;;;;;;;;;;;;;18.66;66.11;101405.31;1241835;23;690;-68
2023/05/09 00:42:57;;;;;;;;;;;;;;;18.67;66.31;101398.91;1240851;23;620;-68
2023/05/09 00:43:47;;;;;;;;;;;;;;;18.67;66.62;101398.91;1241580;23;918;-67
2023/05/09 00:44:37;;;;;;;;;;;;;;;18.67;66.41;101404.31;1241887;23;619;-68
2023/05/09 00:45:28;;;;;;;;;;;;;;;18.66;66.39;101391.81;1241592;23;674;-68
2023/05/09 00:46:18;;;;;;;;;;;;;;;18.64;66.15;101400.03;1242180;23;634;-68
2023/05/09 00:47:09;;;;;;;;;;;;;;;18.65;66.81;101406.28;1241802;23;655;-68
2023/05/09 00:47:59;;;;;;;;;;;;;;;18.64;66.33;101397.34;1247764;23;1235;-68
2023/05/09 00:48:51;;;;;;;;;;;;;;;18.65;67.24;101398.19;1251063;23;626;-68
2023/05/09 00:49:41;;;;;;;;;;;;;;;18.63;66.19;101405.59;1250987;23;606;-68
2023/05/09 00:50:32;;;;;;;;;;;;;;;18.63;66.45;101381.31;1250826;23;621;-68
2023/05/09 00:51:22;;;;;;;;;;;;;;;18.63;66.39;101392.09;1248406;23;657;-68
2023/05/09 00:52:12;;;;;;;;;;;;;;;18.62;66.42;101390.41;1250950;23;680;-67
2023/05/09 00:53:03;;;;;;;;;;;;;;;18.64;67.27;101388.38;1251127;23;633;-67
2023/05/09 00:53:53;;;;;;;;;;;;;;;18.65;67.65;101396.34;1251164;23;628;-67
2023/05/09 00:54:44;;;;;;;;;;;;;;;18.65;67.23;101390.09;1251200;23;645;-68
2023/05/09 00:55:34;;;;;;;;;;;;;;;18.65;67.02;101390.94;1250966;23;606;-68
2023/05/09 00:56:25;;;;;;;;;;;;;;;18.67;66.94;101386.28;1246814;23;638;-69
2023/05/09 00:57:16;;;;;;;;;;;;;;;18.67;66.94;101388.13;1251074;23;713;-68
2023/05/09 00:58:06;;;;;;;;;;;;;;;18.64;67.42;101388.38;1251031;23;610;-68
2023/05/09 00:58:56;;;;;;;;;;;;;;;18.63;67.29;101392.09;1250835;23;652;-67
2023/05/09 00:59:47;;;;;;;;;;;;;;;18.64;66.85;101388.38;1251144;23;672;-68
2023/05/09 01:00:37;;;;;;;;;;;;;;;18.63;66.81;101387.53;1250679;23;646;-67
2023/05/09 01:01:28;;;;;;;;;;;;;;;18.63;66.48;101387.53;1248391;23;678;-67
2023/05/09 01:02:18;;;;;;;;;;;;;;;18.66;66.02;101386.41;1250923;23;648;-67
2023/05/09 01:03:09;;;;;;;;;;;;;;;18.65;66.82;101379.28;1250963;23;665;-67
2023/05/09 01:03:59;;;;;;;;;;;;;;;18.62;66.07;101380.47;1251239;23;695;-68
2023/05/09 01:04:49;;;;;;;;;;;;;;;18.63;66.81;101381.31;1251054;23;637;-68
2023/05/09 01:05:40;;;;;;;;;;;;;;;18.59;66.24;101374.47;1250925;23;621;-68
2023/05/09 01:06:31;;;;;;;;;;;;;;;18.61;66.37;101378.75;1250895;23;701;-68
2023/05/09 01:07:22;;;;;;;;;;;;;;;18.61;66.88;101372.50;1247025;23;638;-68
2023/05/09 01:08:12;;;;;;;;;;;;;;;18.60;66.27;101374.34;1251359;23;661;-68
2023/05/09 01:09:03;;;;;;;;;;;;;;;18.60;66.36;101368.09;1251028;23;645;-68
2023/05/09 01:09:53;;;;;;;;;;;;;;;18.60;66.82;101365.38;1251143;23;632;-68
2023/05/09 01:10:43;;;;;;;;;;;;;;;18.60;67.11;101368.94;1250878;23;673;-68
2023/05/09 01:11:34;;;;;;;;;;;;;;;18.59;66.11;101372.63;1251123;23;779;-68
2023/05/09 01:12:24;;;;;;;;;;;;;;;18.59;65.90;101374.47;1247089;23;665;-68
2023/05/09 01:13:15;;;;;;;;;;;;;;;18.60;66.27;101370.78;1247759;23;615;-67
2023/05/09 01:14:06;;;;;;;;;;;;;;;18.60;66.23;101368.94;1249982;23;611;-67
2023/05/09 01:14:56;;;;;;;;;;;;;;;18.60;66.57;101366.25;1247570;23;1949;-67
2023/05/09 01:15:46;;;;;;;;;;;;;;;18.61;66.74;101367.94;1250889;23;603;-67
2023/05/09 01:16:37;;;;;;;;;;;;;;;18.61;66.75;101367.09;1250977;23;638;-67
2023/05/09 01:17:27;;;;;;;;;;;;;;;18.59;66.40;101363.69;1250598;23;645;-68
2023/05/09 01:18:18;;;;;;;;;;;;;;;18.57;66.37;101357.53;1249190;23;677;-68
2023/05/09 01:19:08;;;;;;;;;;;;;;;18.57;66.76;101365.63;1246777;23;630;-67
2023/05/09 01:19:59;;;;;;;;;;;;;;;18.57;66.03;101366.47;1250704;23;657;-68
2023/05/09 01:20:50;;;;;;;;;;;;;;;18.60;66.49;101354.59;1247246;23;650;-67
2023/05/09 01:21:40;;;;;;;;;;;;;;;18.57;66.19;101357.53;1249110;23;606;-68
2023/05/09 01:22:31;;;;;;;;;;;;;;;18.57;66.80;101360.22;1249740;23;661;-67
2023/05/09 01:23:21;;;;;;;;;;;;;;;18.57;66.03;101357.53;1249224;23;653;-67
2023/05/09 01:24:12;;;;;;;;;;;;;;;18.59;66.43;101358.28;1251496;23;622;-68
2023/05/09 01:25:04;;;;;;;;;;;;;;;18.57;66.03;101360.22;1251138;23;775;-68
2023/05/09 01:25:54;;;;;;;;;;;;;;;18.56;66.17;101359.38;1251057;23;646;-69
2023/05/09 01:26:45;;;;;;;;;;;;;;;18.57;66.06;101362.91;1249371;23;668;-68
2023/05/09 01:27:36;;;;;;;;;;;;;;;18.56;66.34;101356.66;1246968;23;682;-68
2023/05/09 01:28:26;;;;;;;;;;;;;;;18.55;65.75;101346.88;1251032;23;651;-68
2023/05/09 01:29:16;;;;;;;;;;;;;;;18.55;66.59;101351.41;1250737;23;1121;-68
2023/05/09 01:30:07;;;;;;;;;;;;;;;18.54;66.05;101349.69;1251163;23;598;-67
2023/05/09 01:30:57;;;;;;;;;;;;;;;18.54;66.55;101352.41;1250971;23;704;-67
2023/05/09 01:31:48;;;;;;;;;;;;;;;18.58;66.87;101343.03;1250726;23;653;-68
2023/05/09 01:32:38;;;;;;;;;;;;;;;18.60;66.71;101350.03;1250989;23;641;-68
2023/05/09 01:33:29;;;;;;;;;;;;;;;18.59;67.06;101347.47;1250472;23;626;-67
2023/05/09 01:34:19;;;;;;;;;;;;;;;18.58;65.96;101349.28;1250875;23;621;-68
2023/05/09 01:35:09;;;;;;;;;;;;;;;18.57;66.38;101344.03;1250739;23;1923;-68
2023/05/09 01:36:00;;;;;;;;;;;;;;;18.56;66.18;101345.88;1250336;23;645;-68
2023/05/09 01:36:51;;;;;;;;;;;;;;;18.58;66.59;101345.75;1250868;23;669;-67
2023/05/09 01:37:41;;;;;;;;;;;;;;;18.58;65.87;101343.03;1250965;23;618;-68
2023/05/09 01:38:31;;;;;;;;;;;;;;;18.58;66.32;101343.03;1246960;23;662;-68
2023/05/09 01:39:22;;;;;;;;;;;;;;;18.60;66.24;101344.66;1251006;23;622;-68
2023/05/09 01:40:12;;;;;;;;;;;;;;;18.62;65.76;101345.38;1250806;23;620;-68
2023/05/09 01:41:04;;;;;;;;;;;;;;;18.61;66.90;101340.94;1250683;23;614;-68
2023/05/09 01:41:55;;;;;;;;;;;;;;;18.59;66.27;101342.09;1250764;23;614;-68
2023/05/09 01:42:45;;;;;;;;;;;;;;;18.58;66.32;101340.34;1251227;23;641;-69
2023/05/09 01:43:36;;;;;;;;;;;;;;;18.57;67.08;101342.19;1251046;23;618;-68
2023/05/09 01:44:26;;;;;;;;;;;;;;;18.57;66.08;101339.47;1251197;23;659;-68
2023/05/09 01:45:16;;;;;;;;;;;;;;;18.57;66.44;101341.34;1251095;23;641;-68
2023/05/09 01:46:07;;;;;;;;;;;;;;;18.57;66.73;101338.63;1250890;23;575;-68
2023/05/09 01:46:57;;;;;;;;;;;;;;;18.56;66.85;101332.38;1250989;23;657;-68
2023/05/09 01:47:48;;;;;;;;;;;;;;;18.54;66.81;101333.50;1250424;23;1158;-68
2023/05/09 01:48:39;;;;;;;;;;;;;;;18.54;65.90;101333.50;1251112;23;629;-68
2023/05/09 01:49:30;;;;;;;;;;;;;;;18.56;66.75;101337.78;1246953;23;623;-68
2023/05/09 01:50:20;;;;;;;;;;;;;;;18.55;66.26;101340.63;1249616;23;630;-68
2023/05/09 01:51:11;;;;;;;;;;;;;;;18.57;66.34;101338.63;1247706;23;658;-68
2023/05/09 01:52:01;;;;;;;;;;;;;;;18.56;66.52;101331.53;1247139;23;615;-68
2023/05/09 01:52:52;;;;;;;;;;;;;;;18.55;66.49;101335.22;1247321;23;658;-68
2023/05/09 01:53:42;;;;;;;;;;;;;;;18.53;67.23;101331.78;1247430;23;607;-68
2023/05/09 01:54:32;;;;;;;;;;;;;;;18.53;67.12;101329.94;1250911;23;749;-68
2023/05/09 01:55:26;;;;;;;;;;;;;;;18.52;66.93;101327.38;1250741;23;681;-68
2023/05/09 01:56:16;;;;;;;;;;;;;;;18.52;66.92;101325.53;1247081;23;611;-68
2023/05/09 01:57:06;;;;;;;;;;;;;;;18.50;66.87;101332.06;1249672;23;643;-69
2023/05/09 01:57:57;;;;;;;;;;;;;;;18.52;66.98;101324.69;1248198;23;740;-68
2023/05/09 01:58:48;;;;;;;;;;;;;;;18.54;65.94;101328.97;1251075;23;629;-68
2023/05/09 01:59:39;;;;;;;;;;;;;;;18.54;66.63;101328.09;1247200;23;649;-68
2023/05/09 02:00:29;;;;;;;;;;;;;;;18.54;65.73;101330.81;1247273;23;623;-68
2023/05/09 02:01:20;;;;;;;;;;;;;;;18.53;66.27;101329.09;1247605;23;627;-68
2023/05/09 02:02:10;;;;;;;;;;;;;;;18.52;66.67;101324.69;1250928;23;649;-68
2023/05/09 02:03:01;;;;;;;;;;;;;;;18.51;66.45;101322.97;1250826;23;604;-68
2023/05/09 02:03:51;;;;;;;;;;;;;;;18.50;66.86;101321.28;1251014;23;662;-68
2023/05/09 02:04:41;;;;;;;;;;;;;;;18.52;66.38;101322.00;1250976;23;689;-68
2023/05/09 02:05:32;;;;;;;;;;;;;;;18.52;66.22;101313.88;1251095;23;708;-68
2023/05/09 02:06:22;;;;;;;;;;;;;;;18.52;66.44;101319.28;1246696;23;603;-69
2023/05/09 02:07:13;;;;;;;;;;;;;;;18.53;67.20;101310.19;1250550;23;622;-68
2023/05/09 02:08:03;;;;;;;;;;;;;;;18.54;66.62;101312.75;1250965;23;598;-69
2023/05/09 02:08:54;;;;;;;;;;;;;;;18.54;67.09;101306.50;1250721;23;638;-68
2023/05/09 02:09:44;;;;;;;;;;;;;;;18.53;66.35;101310.19;1246603;23;627;-68
2023/05/09 02:10:34;;;;;;;;;;;;;;;18.54;66.66;101311.91;1250814;23;761;-69
2023/05/09 02:11:25;;;;;;;;;;;;;;;18.53;66.89;101304.81;1246967;23;666;-69
2023/05/09 02:12:15;;;;;;;;;;;;;;;18.51;66.66;101310.34;1250824;23;598;-69
2023/05/09 02:13:06;;;;;;;;;;;;;;;18.50;66.07;101305.94;1250628;23;677;-68
2023/05/09 02:13:56;;;;;;;;;;;;;;;18.50;66.14;101311.34;1246735;23;588;-69
2023/05/09 02:14:47;;;;;;;;;;;;;;;18.50;66.85;101316.72;1250605;23;656;-69
2023/05/09 02:15:37;;;;;;;;;;;;;;;18.51;67.00;101304.94;1251099;23;697;-69
2023/05/09 02:16:28;;;;;;;;;;;;;;;18.50;66.08;101308.63;1251036;23;610;-69
2023/05/09 02:17:20;;;;;;;;;;;;;;;18.49;66.29;101306.06;1251256;23;614;-69
2023/05/09 02:18:11;;;;;;;;;;;;;;;18.48;66.82;101307.91;1250865;23;633;-69
2023/05/09 02:19:02;;;;;;;;;;;;;;;18.45;66.49;101312.75;1250566;23;637;-69
2023/05/09 02:19:52;;;;;;;;;;;;;;;18.49;66.17;101308.78;1250791;23;644;-69
2023/05/09 02:20:43;;;;;;;;;;;;;;;18.51;66.27;101309.47;1250931;23;673;-69
2023/05/09 02:21:33;;;;;;;;;;;;;;;18.52;65.74;101308.50;1251197;23;646;-69
2023/05/09 02:22:24;;;;;;;;;;;;;;;18.51;66.27;101306.78;1250569;23;633;-69
2023/05/09 02:23:14;;;;;;;;;;;;;;;18.51;66.24;101301.38;1247196;23;626;-69
2023/05/09 02:24:05;;;;;;;;;;;;;;;18.52;66.15;101305.78;1249587;23;611;-69
2023/05/09 02:24:55;;;;;;;;;;;;;;;18.53;66.70;101302.09;1247465;23;735;-69
2023/05/09 02:25:46;;;;;;;;;;;;;;;18.52;66.01;101303.94;1250989;23;649;-69
2023/05/09 02:26:36;;;;;;;;;;;;;;;18.54;66.24;101290.31;1246593;23;655;-69
2023/05/09 02:27:26;;;;;;;;;;;;;;;18.53;66.43;101305.66;1251024;23;650;-68
2023/05/09 02:28:17;;;;;;;;;;;;;;;18.53;66.46;101300.25;1250878;23;709;-69
2023/05/09 02:29:08;;;;;;;;;;;;;;;18.52;66.66;101303.09;1249995;23;630;-67
2023/05/09 02:30:01;;;;;;;;;;;;;;;18.52;67.19;101303.94;1246086;23;651;-68
2023/05/09 02:30:51;;;;;;;;;;;;;;;18.54;66.21;101296.56;1247038;23;654;-67
2023/05/09 02:31:42;;;;;;;;;;;;;;;18.52;66.79;101301.25;1250858;23;614;-68
2023/05/09 02:32:32;;;;;;;;;;;;;;;18.50;67.14;101297.84;1251233;23;724;-67
2023/05/09 02:33:23;;;;;;;;;;;;;;;18.46;66.88;101300.94;1250974;23;637;-68
2023/05/09 02:34:13;;;;;;;;;;;;;;;18.48;66.54;101296.25;1248894;23;610;-68
2023/05/09 02:35:03;;;;;;;;;;;;;;;18.48;66.21;101298.97;1250929;23;1936;-68
2023/05/09 02:35:54;;;;;;;;;;;;;;;18.50;66.38;101299.69;1247589;23;607;-68
2023/05/09 02:36:44;;;;;;;;;;;;;;;18.52;66.31;101292.31;1249795;23;650;-68
2023/05/09 02:37:35;;;;;;;;;;;;;;;18.48;66.40;101299.81;1247938;23;670;-68
2023/05/09 02:38:26;;;;;;;;;;;;;;;18.49;66.66;101297.97;1251139;23;626;-68
2023/05/09 02:39:16;;;;;;;;;;;;;;;18.51;66.31;101304.09;1251282;23;641;-68
2023/05/09 02:40:08;;;;;;;;;;;;;;;18.48;66.50;101298.97;1250920;23;653;-68
2023/05/09 02:40:58;;;;;;;;;;;;;;;18.47;66.63;101299.94;1246806;23;607;-68
2023/05/09 02:41:49;;;;;;;;;;;;;;;18.49;66.47;101311.47;1246972;23;635;-68
2023/05/09 02:42:39;;;;;;;;;;;;;;;18.50;66.89;101305.06;1251132;23;610;-68
2023/05/09 02:43:30;;;;;;;;;;;;;;;18.50;66.48;101308.63;1251066;23;657;-68
2023/05/09 02:44:20;;;;;;;;;;;;;;;18.51;66.21;101301.38;1251230;23;669;-68
2023/05/09 02:45:10;;;;;;;;;;;;;;;18.50;66.82;101305.06;1251006;23;620;-67
2023/05/09 02:46:01;;;;;;;;;;;;;;;18.49;66.89;101303.38;1250841;23;729;-68
2023/05/09 02:46:51;;;;;;;;;;;;;;;18.48;66.90;101296.25;1251104;23;618;-68
2023/05/09 02:47:42;;;;;;;;;;;;;;;18.47;66.96;101295.41;1246916;23;1057;-68
2023/05/09 02:48:32;;;;;;;;;;;;;;;18.47;66.56;101289.16;1250676;23;688;-68
2023/05/09 02:49:23;;;;;;;;;;;;;;;18.48;66.07;101301.66;1247055;23;669;-68
2023/05/09 02:50:13;;;;;;;;;;;;;;;18.46;66.60;101291.00;1251252;23;649;-67
2023/05/09 02:51:03;;;;;;;;;;;;;;;18.46;66.48;101298.25;1246903;23;586;-67
2023/05/09 02:51:54;;;;;;;;;;;;;;;18.48;66.83;101293.56;1250923;23;763;-67
2023/05/09 02:52:44;;;;;;;;;;;;;;;18.48;66.81;101290.88;1250987;23;617;-67
2023/05/09 02:53:35;;;;;;;;;;;;;;;18.47;66.96;101291.84;1247961;23;646;-67
2023/05/09 02:54:25;;;;;;;;;;;;;;;18.48;66.38;101290.88;1246996;23;611;-68
2023/05/09 02:55:16;;;;;;;;;;;;;;;18.48;66.23;101283.63;1250984;23;1902;-68
2023/05/09 02:56:07;;;;;;;;;;;;;;;18.48;66.83;101296.25;1246556;23;646;-68
2023/05/09 02:56:58;;;;;;;;;;;;;;;18.47;66.92;101291.84;1250983;23;641;-68
2023/05/09 02:57:48;;;;;;;;;;;;;;;18.46;66.27;101290.16;1251094;23;721;-68
2023/05/09 02:58:39;;;;;;;;;;;;;;;18.46;66.70;101287.44;1250864;23;656;-68
2023/05/09 02:59:29;;;;;;;;;;;;;;;18.47;66.30;101283.75;1251173;23;630;-68
2023/05/09 03:00:20;;;;;;;;;;;;;;;18.47;67.19;101283.75;1250961;23;661;-68
2023/05/09 03:01:10;;;;;;;;;;;;;;;18.48;66.30;101275.53;1250979;23;638;-68
2023/05/09 03:02:01;;;;;;;;;;;;;;;18.48;66.80;101275.53;1251163;23;611;-68
2023/05/09 03:02:51;;;;;;;;;;;;;;;18.46;67.06;101271.25;1246272;23;642;-68
2023/05/09 03:03:42;;;;;;;;;;;;;;;18.46;67.09;101264.00;1247198;23;650;-68
2023/05/09 03:04:33;;;;;;;;;;;;;;;18.47;66.19;101275.66;1250963;23;673;-68
2023/05/09 03:05:23;;;;;;;;;;;;;;;18.48;66.23;101266.56;1251102;23;646;-68
2023/05/09 03:06:14;;;;;;;;;;;;;;;18.47;66.54;101262.16;1247435;23;666;-68
2023/05/09 03:07:04;;;;;;;;;;;;;;;18.48;66.37;101267.44;1249914;23;685;-68
2023/05/09 03:07:54;;;;;;;;;;;;;;;18.48;66.11;101263.88;1247411;23;583;-69
2023/05/09 03:08:45;;;;;;;;;;;;;;;18.47;66.29;101256.78;1249238;23;642;-68
2023/05/09 03:09:35;;;;;;;;;;;;;;;18.46;66.26;101266.72;1251130;23;614;-68
2023/05/09 03:10:26;;;;;;;;;;;;;;;18.46;67.04;101257.75;1250864;23;633;-67
2023/05/09 03:11:16;;;;;;;;;;;;;;;18.47;66.35;101259.47;1251073;23;622;-68
2023/05/09 03:12:07;;;;;;;;;;;;;;;18.48;66.33;101259.34;1250952;23;672;-68
2023/05/09 03:12:57;;;;;;;;;;;;;;;18.47;66.59;101260.31;1251063;23;735;-68
2023/05/09 03:13:47;;;;;;;;;;;;;;;18.48;66.11;101255.78;1250961;23;661;-68
2023/05/09 03:14:38;;;;;;;;;;;;;;;18.46;65.84;101245.13;1250841;23;610;-68
2023/05/09 03:15:28;;;;;;;;;;;;;;;18.48;66.41;101253.09;1250985;23;613;-68
2023/05/09 03:16:19;;;;;;;;;;;;;;;18.47;66.47;101251.38;1250941;23;666;-68
2023/05/09 03:17:09;;;;;;;;;;;;;;;18.45;66.84;101251.50;1251131;23;646;-68
2023/05/09 03:18:00;;;;;;;;;;;;;;;18.45;66.86;101250.69;1247124;23;626;-68
2023/05/09 03:18:50;;;;;;;;;;;;;;;18.47;66.83;101251.38;1251083;23;622;-68
2023/05/09 03:19:41;;;;;;;;;;;;;;;18.46;66.33;101255.91;1250954;23;692;-68
2023/05/09 03:20:31;;;;;;;;;;;;;;;18.48;66.12;101258.47;1251154;23;884;-68
2023/05/09 03:21:21;;;;;;;;;;;;;;;18.47;66.48;101254.06;1251005;23;661;-68
2023/05/09 03:22:12;;;;;;;;;;;;;;;18.47;66.50;101256.78;1250924;23;685;-68
2023/05/09 03:23:02;;;;;;;;;;;;;;;18.46;66.69;101247.81;1246734;23;596;-68
2023/05/09 03:23:53;;;;;;;;;;;;;;;18.46;66.69;101252.38;1250923;23;723;-68
2023/05/09 03:24:43;;;;;;;;;;;;;;;18.44;66.55;101243.59;1251392;23;867;-68
2023/05/09 03:25:34;;;;;;;;;;;;;;;18.43;66.38;101240.03;1251026;23;744;-68
2023/05/09 03:26:25;;;;;;;;;;;;;;;18.45;66.14;101242.59;1251067;23;719;-67
2023/05/09 03:27:15;;;;;;;;;;;;;;;18.45;66.36;101242.59;1251046;23;722;-68
2023/05/09 03:28:06;;;;;;;;;;;;;;;18.45;66.34;101243.41;1250882;23;642;-67
2023/05/09 03:28:56;;;;;;;;;;;;;;;18.46;66.54;101241.56;1251040;23;653;-68
2023/05/09 03:29:47;;;;;;;;;;;;;;;18.44;66.69;101232.78;1250846;23;653;-68
2023/05/09 03:30:37;;;;;;;;;;;;;;;18.44;66.35;101246.28;1251225;23;645;-68
2023/05/09 03:31:27;;;;;;;;;;;;;;;18.44;66.63;101240.88;1251363;23;609;-68
2023/05/09 03:32:18;;;;;;;;;;;;;;;18.45;66.79;101240.72;1250673;23;665;-68
2023/05/09 03:33:08;;;;;;;;;;;;;;;18.44;66.15;101246.28;1251576;23;622;-68
2023/05/09 03:33:59;;;;;;;;;;;;;;;18.43;66.98;101236.47;1251290;23;684;-68
2023/05/09 03:34:49;;;;;;;;;;;;;;;18.42;66.85;101222.13;1251537;23;649;-68
2023/05/09 03:35:40;;;;;;;;;;;;;;;18.45;66.27;101232.63;1247385;23;641;-68
2023/05/09 03:36:31;;;;;;;;;;;;;;;18.46;66.48;101230.78;1251258;23;681;-68
2023/05/09 03:37:21;;;;;;;;;;;;;;;18.49;66.44;101227.81;1251551;23;656;-68
2023/05/09 03:38:12;;;;;;;;;;;;;;;18.49;65.96;101227.81;1247669;23;605;-68
2023/05/09 03:39:02;;;;;;;;;;;;;;;18.46;66.22;101228.94;1247991;23;657;-68
2023/05/09 03:39:52;;;;;;;;;;;;;;;18.44;66.63;101222.00;1248111;23;619;-68
2023/05/09 03:40:43;;;;;;;;;;;;;;;18.43;66.72;101213.03;1251191;23;634;-68
2023/05/09 03:41:34;;;;;;;;;;;;;;;18.41;65.95;101223.13;1251497;23;618;-68
2023/05/09 03:42:25;;;;;;;;;;;;;;;18.44;66.77;101222.00;1247415;23;683;-68
2023/05/09 03:43:15;;;;;;;;;;;;;;;18.42;66.18;101218.59;1247681;23;607;-68
2023/05/09 03:44:06;;;;;;;;;;;;;;;18.44;66.56;101219.28;1247807;23;677;-68
2023/05/09 03:44:56;;;;;;;;;;;;;;;18.42;66.53;101215.88;1247773;23;609;-68
2023/05/09 03:45:46;;;;;;;;;;;;;;;18.39;66.72;101215.16;1251375;23;669;-68
2023/05/09 03:46:37;;;;;;;;;;;;;;;18.39;66.14;101212.47;1250633;23;665;-68
2023/05/09 03:47:27;;;;;;;;;;;;;;;18.41;66.37;101206.94;1251055;23;653;-68
2023/05/09 03:48:18;;;;;;;;;;;;;;;18.42;66.23;101210.50;1251721;23;1132;-68
2023/05/09 03:49:08;;;;;;;;;;;;;;;18.44;66.29;101209.34;1249707;23;650;-69
2023/05/09 03:49:59;;;;;;;;;;;;;;;18.44;66.75;101205.81;1249566;23;618;-68
2023/05/09 03:50:49;;;;;;;;;;;;;;;18.43;66.14;101202.25;1249642;23;752;-68
2023/05/09 03:51:40;;;;;;;;;;;;;;;18.42;66.16;101210.50;1249675;23;677;-68
2023/05/09 03:52:30;;;;;;;;;;;;;;;18.38;66.68;101205.38;1249684;23;713;-68
2023/05/09 03:53:20;;;;;;;;;;;;;;;18.39;66.93;101204.38;1249490;23;602;-68
2023/05/09 03:54:11;;;;;;;;;;;;;;;18.39;66.41;101207.06;1249695;23;602;-69
2023/05/09 03:55:01;;;;;;;;;;;;;;;18.38;66.22;101210.75;1249625;23;2015;-69
2023/05/09 03:55:52;;;;;;;;;;;;;;;18.36;66.73;101203.81;1249739;23;611;-69
2023/05/09 03:56:42;;;;;;;;;;;;;;;18.35;66.96;101202.94;1249601;23;591;-69
2023/05/09 03:57:33;;;;;;;;;;;;;;;18.38;65.70;101204.50;1249629;23;643;-69
2023/05/09 03:58:23;;;;;;;;;;;;;;;18.39;66.12;101207.06;1249657;23;615;-69
2023/05/09 03:59:14;;;;;;;;;;;;;;;18.39;66.74;101207.06;1249709;23;595;-69
2023/05/09 04:00:05;;;;;;;;;;;;;;;18.41;66.46;101208.78;1248805;23;696;-69
2023/05/09 04:00:56;;;;;;;;;;;;;;;18.39;66.83;101201.69;1242068;23;658;-69
2023/05/09 04:01:46;;;;;;;;;;;;;;;18.40;66.34;101202.53;1242407;23;670;-69
2023/05/09 04:02:37;;;;;;;;;;;;;;;18.38;66.70;101199.13;1248816;23;686;-69
2023/05/09 04:03:27;;;;;;;;;;;;;;;18.38;66.63;101210.75;1249600;23;749;-68
2023/05/09 04:04:17;;;;;;;;;;;;;;;18.38;66.32;101204.50;1249756;23;638;-68
2023/05/09 04:05:08;;;;;;;;;;;;;;;18.35;65.82;101202.09;1249637;23;620;-68
2023/05/09 04:05:58;;;;;;;;;;;;;;;18.34;66.86;101201.25;1249613;23;607;-68
2023/05/09 04:06:49;;;;;;;;;;;;;;;18.36;66.59;101201.94;1249736;23;669;-68
2023/05/09 04:07:39;;;;;;;;;;;;;;;18.38;65.66;101201.81;1248770;23;606;-68
2023/05/09 04:08:30;;;;;;;;;;;;;;;18.35;66.63;101200.25;1249697;23;581;-68
2023/05/09 04:09:20;;;;;;;;;;;;;;;18.35;66.72;101205.63;1249750;23;599;-68
2023/05/09 04:10:11;;;;;;;;;;;;;;;18.35;66.09;101202.09;1249622;23;655;-68
2023/05/09 04:11:01;;;;;;;;;;;;;;;18.34;66.73;101198.53;1249633;23;693;-68
2023/05/09 04:11:51;;;;;;;;;;;;;;;18.34;66.35;101201.25;1249726;23;728;-68
2023/05/09 04:12:42;;;;;;;;;;;;;;;18.31;66.97;101193.41;1249650;23;646;-68
2023/05/09 04:13:32;;;;;;;;;;;;;;;18.34;66.17;101195.00;1249630;23;690;-68
2023/05/09 04:14:23;;;;;;;;;;;;;;;18.36;66.79;101201.09;1249465;23;708;-68
2023/05/09 04:15:13;;;;;;;;;;;;;;;18.35;66.27;101192.16;1249568;23;1934;-68
2023/05/09 04:16:04;;;;;;;;;;;;;;;18.35;65.73;101194.84;1249524;23;630;-68
2023/05/09 04:16:54;;;;;;;;;;;;;;;18.33;66.10;101186.03;1243420;23;611;-68
2023/05/09 04:17:44;;;;;;;;;;;;;;;18.35;66.66;101191.28;1243323;23;607;-68
2023/05/09 04:18:38;;;;;;;;;;;;;;;18.35;66.66;101184.06;1248615;23;674;-68
2023/05/09 04:19:29;;;;;;;;;;;;;;;18.35;66.00;101192.16;1242652;23;631;-68
2023/05/09 04:20:19;;;;;;;;;;;;;;;18.33;66.09;101187.88;1243341;23;650;-68
2023/05/09 04:21:09;;;;;;;;;;;;;;;18.31;65.91;101190.72;1242560;23;616;-68
2023/05/09 04:22:00;;;;;;;;;;;;;;;18.33;65.92;101190.59;1247407;23;686;-68
2023/05/09 04:22:50;;;;;;;;;;;;;;;18.31;66.37;101193.41;1249476;23;619;-68
2023/05/09 04:23:42;;;;;;;;;;;;;;;18.31;66.94;101188.03;1249631;23;619;-69
2023/05/09 04:24:32;;;;;;;;;;;;;;;18.32;66.84;101195.13;1248709;23;611;-68
2023/05/09 04:25:23;;;;;;;;;;;;;;;18.32;66.44;101188.88;1249770;23;681;-69
2023/05/09 04:26:14;;;;;;;;;;;;;;;18.33;65.84;101193.28;1249691;23;642;-69
2023/05/09 04:27:05;;;;;;;;;;;;;;;18.33;65.67;101188.75;1247928;23;678;-68